Bruck An Der Mur, Austria
Current Conditions -  °F | °C
As of 12:20 PM on Saturday 25 Oct 2014 (Local Time) from LOWG Reporting Station
Broken Clouds Broken Clouds  
Wind Chill: 48°   Ceiling: 3000
Heat Index: 48°   Visibility: 6mi
Dew Point: 41°   Wind: 2mph
Humidity: 76%   Direction: NA
Pressure: 30.24"   Gusts: NA
Location:  47.42°N, 15.27°E
Report Text: LOWG 251020Z VRB02KT 9999 FEW020 BKN030 09/05 Q1024 NOSIG
Loading
Personal Weather Stations






























Interactive Weather Map
Tropical Storm Tracking
New forecast layout! Learn more

10-Day Weather Forecast

Advertisements
Track Severe Weather on mobile